Shelton, Washington
Current Conditions -  °F | °C
As of 12:53 PM on Thursday 20 Nov 2014 (Local Time) from KSHN Reporting Station
Overcast Overcast  
Wind Chill: 48°   Ceiling: 3800
Heat Index: 48°   Visibility: 10mi
Dew Point: 46°   Wind: 0mph
Humidity: 93%   Direction: NA
Pressure: 29.93"   Gusts: NA
Location:  47.21°N, 123.1°W
Report Text: KSHN 202053Z AUTO 00000KT 10SM FEW003 BKN038 OVC080 09/08 A2993 RMK AO2 RAB10E21 SLP140 P0000 60001 T00890078 58007
Loading
Personal Weather Stations






























Interactive Weather Map New forecast layout! Learn more

10-Day Weather Forecast

Advertisements
Track Severe Weather on mobile